createdAt,value
2023-03-19T00:00:34.577Z,9.23
2023-03-19T00:03:01.428Z,9.13
2023-03-19T00:05:28.231Z,9.32
2023-03-19T00:07:54.844Z,9.43
2023-03-19T00:10:21.747Z,9.52
2023-03-19T00:12:48.421Z,9.52
2023-03-19T00:15:15.506Z,9.75
2023-03-19T00:17:43.169Z,9.63
2023-03-19T00:20:12.114Z,9.50
2023-03-19T00:22:39.901Z,8.98
2023-03-19T00:25:08.537Z,9.02
2023-03-19T00:27:37.292Z,9.13
2023-03-19T00:30:05.741Z,8.65
2023-03-19T00:32:33.965Z,9.18
2023-03-19T00:35:01.316Z,8.40
2023-03-19T00:37:28.067Z,8.43
2023-03-19T00:39:56.114Z,8.65
2023-03-19T00:42:22.824Z,8.20
2023-03-19T00:44:49.602Z,8.10
2023-03-19T00:47:16.327Z,8.20
2023-03-19T00:49:43.184Z,8.07
2023-03-19T00:52:09.902Z,7.78
2023-03-19T00:54:36.519Z,7.63
2023-03-19T00:57:03.229Z,7.53
2023-03-19T00:59:30.185Z,7.10
2023-03-19T01:01:56.827Z,7.00
2023-03-19T01:04:23.569Z,6.82
2023-03-19T01:06:50.616Z,6.82
2023-03-19T01:09:17.988Z,6.57
2023-03-19T01:11:44.676Z,6.25
2023-03-19T01:14:11.720Z,6.57
2023-03-19T01:16:38.590Z,5.85
2023-03-19T01:19:06.091Z,6.43
2023-03-19T01:21:32.891Z,6.22
2023-03-19T01:23:59.649Z,6.43
2023-03-19T01:26:28.266Z,6.20
2023-03-19T01:29:01.015Z,6.25
2023-03-19T01:31:28.947Z,5.95
2023-03-19T01:34:04.726Z,5.70
2023-03-19T01:36:40.542Z,5.78
2023-03-19T01:39:07.545Z,5.80
2023-03-19T01:41:34.485Z,5.25
2023-03-19T01:44:36.187Z,5.53
2023-03-19T01:47:33.431Z,5.70
2023-03-19T01:50:40.441Z,6.00
2023-03-19T01:53:18.549Z,5.30
2023-03-19T01:55:49.930Z,5.97
2023-03-19T01:58:35.396Z,5.53
2023-03-19T02:01:10.634Z,5.87
2023-03-19T02:03:42.444Z,5.43
2023-03-19T02:06:17.540Z,5.55
2023-03-19T02:08:44.285Z,5.28
2023-03-19T02:11:10.903Z,5.35
2023-03-19T02:13:38.063Z,5.68
2023-03-19T02:16:05.115Z,5.32
2023-03-19T02:18:32.018Z,5.43
2023-03-19T02:21:05.667Z,5.15
2023-03-19T02:24:12.441Z,5.38
2023-03-19T02:26:50.644Z,4.82
2023-03-19T02:29:18.127Z,5.05
2023-03-19T02:31:47.294Z,5.38
2023-03-19T02:34:13.988Z,5.32
2023-03-19T02:36:48.488Z,5.30
2023-03-19T02:39:23.602Z,5.18
2023-03-19T02:41:53.245Z,5.05
2023-03-19T02:44:20.747Z,4.93
2023-03-19T02:46:50.188Z,4.80
2023-03-19T02:49:16.826Z,4.88
2023-03-19T02:51:43.447Z,4.90
2023-03-19T02:54:10.197Z,4.93
2023-03-19T02:56:37.429Z,4.78
2023-03-19T02:59:05.231Z,5.03
2023-03-19T03:01:31.838Z,4.95
2023-03-19T03:03:58.529Z,4.88
2023-03-19T03:06:25.159Z,5.38
2023-03-19T03:08:52.120Z,4.85
2023-03-19T03:11:18.746Z,5.03
2023-03-19T03:13:45.907Z,4.97
2023-03-19T03:16:12.719Z,5.10
2023-03-19T03:18:39.450Z,5.20
2023-03-19T03:21:06.081Z,4.50
2023-03-19T03:23:32.975Z,5.05
2023-03-19T03:25:59.741Z,4.95
2023-03-19T03:28:26.370Z,4.68
2023-03-19T03:30:58.850Z,5.20
2023-03-19T03:33:25.732Z,4.90
2023-03-19T03:35:52.488Z,4.10
2023-03-19T03:38:19.385Z,4.10
2023-03-19T03:40:46.183Z,4.55
2023-03-19T03:43:12.797Z,3.80
2023-03-19T03:45:39.727Z,4.10
2023-03-19T03:48:07.131Z,4.25
2023-03-19T03:50:34.171Z,3.97
2023-03-19T03:53:06.526Z,3.75
2023-03-19T03:55:33.293Z,4.18
2023-03-19T03:58:00.261Z,3.85
2023-03-19T04:00:27.268Z,3.75
2023-03-19T04:02:53.957Z,3.78
2023-03-19T04:05:20.970Z,3.80
2023-03-19T04:07:47.886Z,3.83
2023-03-19T04:10:15.422Z,3.90
2023-03-19T04:12:42.045Z,3.65
2023-03-19T04:15:11.106Z,3.80
2023-03-19T04:17:40.500Z,3.58
2023-03-19T04:20:08.212Z,3.58
2023-03-19T04:22:34.961Z,4.00
2023-03-19T04:25:02.251Z,3.80
2023-03-19T04:27:29.262Z,3.80
2023-03-19T04:29:56.093Z,3.95
2023-03-19T04:32:23.823Z,3.60
2023-03-19T04:34:50.826Z,3.70
2023-03-19T04:37:17.497Z,4.22
2023-03-19T04:39:48.161Z,3.85
2023-03-19T04:42:15.466Z,4.10
2023-03-19T04:44:51.200Z,4.20
2023-03-19T04:47:18.257Z,4.65
2023-03-19T04:49:52.686Z,4.03
2023-03-19T04:52:20.608Z,4.57
2023-03-19T04:54:48.739Z,4.68
2023-03-19T04:57:16.717Z,5.50
2023-03-19T04:59:45.442Z,5.03
2023-03-19T05:02:14.529Z,5.40
2023-03-19T05:04:41.911Z,5.32
2023-03-19T05:07:12.720Z,5.80
2023-03-19T05:09:42.177Z,5.75
2023-03-19T05:12:09.366Z,5.63
2023-03-19T05:14:42.099Z,5.70
2023-03-19T05:17:32.587Z,5.57
2023-03-19T05:20:22.123Z,6.10
2023-03-19T05:22:55.219Z,5.90
2023-03-19T05:25:30.251Z,6.90
2023-03-19T05:27:57.028Z,5.93
2023-03-19T05:30:25.296Z,6.15
2023-03-19T05:33:19.082Z,6.55
2023-03-19T05:35:46.057Z,6.93
2023-03-19T05:38:22.111Z,6.93
2023-03-19T05:40:55.807Z,7.22
2023-03-19T05:43:29.355Z,6.43
2023-03-19T05:45:57.274Z,7.32
2023-03-19T05:48:28.153Z,6.68
2023-03-19T05:50:55.022Z,6.75
2023-03-19T05:53:23.082Z,6.75
2023-03-19T05:56:08.544Z,7.03
2023-03-19T05:58:46.316Z,7.45
2023-03-19T06:01:16.447Z,6.80
2023-03-19T06:03:44.080Z,7.25
2023-03-19T06:06:12.310Z,7.10
2023-03-19T06:08:43.132Z,7.85
2023-03-19T06:11:40.498Z,7.50
2023-03-19T06:14:27.079Z,7.60
2023-03-19T06:17:19.939Z,7.55
2023-03-19T06:19:48.416Z,8.60
2023-03-19T06:22:15.127Z,8.95
2023-03-19T06:24:41.977Z,8.00
2023-03-19T06:27:09.762Z,7.65
2023-03-19T06:29:38.159Z,7.65
2023-03-19T06:32:17.303Z,8.05
2023-03-19T06:34:44.174Z,8.63
2023-03-19T06:37:11.328Z,8.27
2023-03-19T06:39:38.231Z,8.60
2023-03-19T06:42:05.097Z,9.05
2023-03-19T06:44:31.732Z,8.70
2023-03-19T06:46:58.372Z,9.00
2023-03-19T06:49:25.994Z,8.88
2023-03-19T06:51:52.818Z,8.52
2023-03-19T06:54:19.490Z,8.85
2023-03-19T06:56:47.010Z,8.98
2023-03-19T06:59:13.685Z,9.00
2023-03-19T07:01:41.562Z,8.65
2023-03-19T07:04:09.112Z,8.57
2023-03-19T07:06:35.855Z,8.10
2023-03-19T07:09:02.560Z,8.23
2023-03-19T07:11:29.193Z,8.77
2023-03-19T07:13:55.886Z,8.57
2023-03-19T07:16:22.560Z,8.50
2023-03-19T07:18:49.351Z,8.38
2023-03-19T07:21:16.106Z,8.20
2023-03-19T07:23:42.846Z,8.32
2023-03-19T07:26:09.511Z,7.30
2023-03-19T07:28:36.139Z,8.07
2023-03-19T07:31:02.811Z,7.57
2023-03-19T07:33:29.422Z,7.72
2023-03-19T07:35:56.409Z,7.25
2023-03-19T07:38:23.004Z,7.50
2023-03-19T07:41:01.258Z,6.97
2023-03-19T07:43:28.723Z,7.50
2023-03-19T07:45:55.401Z,7.38
2023-03-19T07:48:22.056Z,7.55
2023-03-19T07:50:51.616Z,6.45
2023-03-19T07:53:18.501Z,6.88
2023-03-19T07:55:45.761Z,6.15
2023-03-19T07:58:12.365Z,6.50
2023-03-19T08:00:39.028Z,5.93
2023-03-19T08:03:05.782Z,6.10
2023-03-19T08:05:32.437Z,6.32
2023-03-19T08:07:59.047Z,5.93
2023-03-19T08:10:25.737Z,6.22
2023-03-19T08:12:52.372Z,5.95
2023-03-19T08:15:19.056Z,5.32
2023-03-19T08:17:46.018Z,5.63
2023-03-19T08:20:18.668Z,5.00
2023-03-19T08:22:49.656Z,5.50
2023-03-19T08:25:16.359Z,5.18
2023-03-19T08:27:43.026Z,4.88
2023-03-19T08:30:11.084Z,5.40
2023-03-19T08:32:38.140Z,4.68
2023-03-19T08:35:06.187Z,5.60
2023-03-19T08:37:33.092Z,5.68
2023-03-19T08:39:59.786Z,5.30
2023-03-19T08:42:26.506Z,5.15
2023-03-19T08:44:53.305Z,5.55
2023-03-19T08:47:23.882Z,5.75
2023-03-19T08:49:51.825Z,5.25
2023-03-19T08:52:19.576Z,5.25
2023-03-19T08:54:46.376Z,5.57
2023-03-19T08:57:13.000Z,5.53
2023-03-19T08:59:39.589Z,5.63
2023-03-19T09:02:06.310Z,5.25
2023-03-19T09:04:37.322Z,5.72
2023-03-19T09:07:04.089Z,5.15
2023-03-19T09:09:30.732Z,5.13
2023-03-19T09:11:57.358Z,5.40
2023-03-19T09:14:23.997Z,5.20
2023-03-19T09:16:50.771Z,4.97
2023-03-19T09:19:17.433Z,5.00
2023-03-19T09:21:44.821Z,4.32
2023-03-19T09:24:11.535Z,4.13
2023-03-19T09:26:38.258Z,4.25
2023-03-19T09:29:05.026Z,4.43
2023-03-19T09:31:31.758Z,4.43
2023-03-19T09:33:58.414Z,4.20
2023-03-19T09:36:26.350Z,4.45
2023-03-19T09:38:53.028Z,4.07
2023-03-19T09:41:31.582Z,3.83
2023-03-19T09:44:11.128Z,3.80
2023-03-19T09:46:44.521Z,4.00
2023-03-19T09:49:24.954Z,3.65
2023-03-19T09:52:20.669Z,2.65
2023-03-19T09:54:52.618Z,2.97
2023-03-19T09:57:19.768Z,3.85
2023-03-19T09:59:47.721Z,2.97
2023-03-19T10:02:41.420Z,3.35
2023-03-19T10:05:23.246Z,3.00
2023-03-19T10:07:49.788Z,3.10
2023-03-19T10:10:16.318Z,2.85
2023-03-19T10:13:04.380Z,3.28
2023-03-19T10:15:36.951Z,3.00
2023-03-19T10:18:35.031Z,2.80
2023-03-19T10:21:11.698Z,2.60
2023-03-19T10:24:03.604Z,2.45
2023-03-19T10:26:34.524Z,2.40
2023-03-19T10:29:13.366Z,2.28
2023-03-19T10:31:55.302Z,2.10
2023-03-19T10:34:31.466Z,1.70
2023-03-19T10:37:17.866Z,1.92
2023-03-19T10:39:44.980Z,1.75
2023-03-19T10:42:53.673Z,2.05
2023-03-19T10:45:26.894Z,2.10
2023-03-19T10:47:56.084Z,2.15
2023-03-19T10:50:38.426Z,2.10
2023-03-19T10:53:04.967Z,2.40
2023-03-19T10:55:31.847Z,2.40
2023-03-19T10:58:21.010Z,2.67
2023-03-19T11:00:50.027Z,2.33
2023-03-19T11:03:39.658Z,2.47
2023-03-19T11:06:19.908Z,2.92
2023-03-19T11:09:02.146Z,2.80
2023-03-19T11:11:42.395Z,2.40
2023-03-19T11:14:18.152Z,2.67
2023-03-19T11:17:04.578Z,2.67
2023-03-19T11:19:39.105Z,2.45
2023-03-19T11:22:05.710Z,3.10
2023-03-19T11:24:34.266Z,3.13
2023-03-19T11:27:02.230Z,3.20
2023-03-19T11:29:29.385Z,2.92
2023-03-19T11:32:22.092Z,3.17
2023-03-19T11:35:40.529Z,2.75
2023-03-19T11:38:18.505Z,2.90
2023-03-19T11:41:13.439Z,3.03
2023-03-19T11:43:58.695Z,2.67
2023-03-19T11:46:54.103Z,3.13
2023-03-19T11:49:37.203Z,2.80
2023-03-19T11:52:13.358Z,2.42
2023-03-19T11:54:43.530Z,2.03
2023-03-19T11:57:51.756Z,2.30
2023-03-19T12:00:22.827Z,2.58
2023-03-19T12:03:54.704Z,2.20
2023-03-19T12:07:00.978Z,2.22
2023-03-19T12:09:40.316Z,7.28
2023-03-19T12:12:26.733Z,3.05
2023-03-19T12:14:58.895Z,2.28
2023-03-19T12:17:52.422Z,2.22
2023-03-19T12:20:19.193Z,2.88
2023-03-19T12:22:55.275Z,2.53
2023-03-19T12:28:03.130Z,2.45
2023-03-19T12:30:46.827Z,2.85
2023-03-19T12:33:19.514Z,2.40
2023-03-19T12:35:50.130Z,2.60
2023-03-19T12:38:28.779Z,2.55
2023-03-19T12:41:10.659Z,2.70
2023-03-19T12:44:11.860Z,2.67
2023-03-19T12:47:02.267Z,2.67
2023-03-19T12:49:38.034Z,3.25
2023-03-19T12:52:38.188Z,3.58
2023-03-19T12:55:22.686Z,3.58
2023-03-19T12:57:54.488Z,4.65
2023-03-19T13:00:27.426Z,4.40
2023-03-19T13:03:00.886Z,4.10
2023-03-19T13:05:48.694Z,4.63
2023-03-19T13:08:49.267Z,4.05
2023-03-19T13:11:21.466Z,4.40
2023-03-19T13:14:00.008Z,4.22
2023-03-19T13:16:51.362Z,4.05
2023-03-19T13:19:56.984Z,4.07
2023-03-19T13:22:32.865Z,4.22
2023-03-19T13:25:01.754Z,4.30
2023-03-19T13:27:34.718Z,4.10
2023-03-19T13:30:09.962Z,3.35
2023-03-19T13:32:48.894Z,3.83
2023-03-19T13:35:24.423Z,3.70
2023-03-19T13:37:59.177Z,3.80
2023-03-19T13:40:42.890Z,3.45
2023-03-19T13:43:30.582Z,3.28
2023-03-19T13:46:29.992Z,3.00
2023-03-19T13:49:25.387Z,2.85
2023-03-19T13:51:56.224Z,3.13
2023-03-19T13:54:40.045Z,3.28
2023-03-19T13:57:17.070Z,2.70
2023-03-19T13:59:47.670Z,2.88
2023-03-19T14:02:43.561Z,3.38
2023-03-19T14:05:19.758Z,3.40
2023-03-19T14:07:53.496Z,3.30
2023-03-19T14:10:29.150Z,3.72
2023-03-19T14:13:07.009Z,3.20
2023-03-19T14:15:34.928Z,3.47
2023-03-19T14:18:03.555Z,3.25
2023-03-19T14:20:40.454Z,3.28
2023-03-19T14:23:17.799Z,3.35
2023-03-19T14:26:03.473Z,3.05
2023-03-19T14:28:49.547Z,4.07
2023-03-19T14:31:22.449Z,3.83
2023-03-19T14:34:11.081Z,4.35
2023-03-19T14:36:56.192Z,4.20
2023-03-19T14:39:29.494Z,4.15
2023-03-19T14:42:03.189Z,3.88
2023-03-19T14:44:56.087Z,4.00
2023-03-19T14:47:56.398Z,3.90
2023-03-19T14:50:44.769Z,3.97
2023-03-19T14:53:34.337Z,4.40
2023-03-19T14:56:11.803Z,4.22
2023-03-19T14:58:51.099Z,4.30
2023-03-19T15:01:18.835Z,4.35
2023-03-19T15:03:46.472Z,3.97
2023-03-19T15:06:15.528Z,4.13
2023-03-19T15:08:42.808Z,3.90
2023-03-19T15:11:12.099Z,4.10
2023-03-19T15:14:02.370Z,3.72
2023-03-19T15:16:46.149Z,3.72
2023-03-19T15:19:13.064Z,3.72
2023-03-19T15:21:40.322Z,3.90
2023-03-19T15:24:14.620Z,3.95
2023-03-19T15:26:41.296Z,3.65
2023-03-19T15:29:12.336Z,4.38
2023-03-19T15:31:51.710Z,4.47
2023-03-19T15:34:26.141Z,4.20
2023-03-19T15:36:57.607Z,3.95
2023-03-19T15:39:27.705Z,4.22
2023-03-19T15:41:56.360Z,4.20
2023-03-19T15:44:27.283Z,4.28
2023-03-19T15:46:56.820Z,4.78
2023-03-19T15:49:29.563Z,5.00
2023-03-19T15:52:01.094Z,5.43
2023-03-19T15:54:28.421Z,4.82
2023-03-19T15:56:56.435Z,6.22
2023-03-19T15:59:27.541Z,6.55
2023-03-19T16:01:59.789Z,7.07
2023-03-19T16:04:29.812Z,7.93
2023-03-19T16:06:58.386Z,8.23
2023-03-19T16:09:26.288Z,8.82
2023-03-19T16:11:54.461Z,10.70
2023-03-19T16:14:46.925Z,10.07
2023-03-19T16:17:16.878Z,9.90
2023-03-19T16:19:56.368Z,10.57
2023-03-19T16:22:28.385Z,11.63
2023-03-19T16:24:56.040Z,11.98
2023-03-19T16:27:34.478Z,11.60
2023-03-19T16:30:01.332Z,12.07
2023-03-19T16:32:37.694Z,12.73
2023-03-19T16:35:16.850Z,11.32
2023-03-19T16:37:45.046Z,13.30
2023-03-19T16:40:11.625Z,12.98
2023-03-19T16:42:56.732Z,13.48
2023-03-19T16:45:27.686Z,13.38
2023-03-19T16:47:57.066Z,13.98
2023-03-19T16:50:38.373Z,14.18
2023-03-19T16:53:13.134Z,14.63
2023-03-19T16:55:40.261Z,14.20
2023-03-19T16:58:24.923Z,14.20
2023-03-19T17:00:51.526Z,14.55
2023-03-19T17:03:19.057Z,15.00
2023-03-19T17:05:47.637Z,14.90
2023-03-19T17:08:14.939Z,14.55
2023-03-19T17:10:49.131Z,14.13
2023-03-19T17:13:21.266Z,15.20
2023-03-19T17:15:49.764Z,14.98
2023-03-19T17:18:38.657Z,15.05
2023-03-19T17:21:33.321Z,15.05
2023-03-19T17:24:20.610Z,16.20
2023-03-19T17:26:47.318Z,17.75
2023-03-19T17:29:13.981Z,16.58
2023-03-19T17:31:40.761Z,15.95
2023-03-19T17:34:13.995Z,22.00
2023-03-19T17:36:41.636Z,18.17
2023-03-19T17:39:11.786Z,16.38
2023-03-19T17:41:38.448Z,16.27
2023-03-19T17:44:06.674Z,14.68
2023-03-19T17:46:40.603Z,14.63
2023-03-19T17:49:15.533Z,14.85
2023-03-19T17:51:42.303Z,14.50
2023-03-19T17:54:11.725Z,15.13
2023-03-19T17:56:38.821Z,14.10
2023-03-19T17:59:05.860Z,15.90
2023-03-19T18:01:32.833Z,15.98
2023-03-19T18:04:00.399Z,15.73
2023-03-19T18:06:33.654Z,15.38
2023-03-19T18:09:00.552Z,15.50
2023-03-19T18:11:27.229Z,15.63
2023-03-19T18:13:54.100Z,15.95
2023-03-19T18:16:29.881Z,15.65
2023-03-19T18:19:01.096Z,15.10
2023-03-19T18:21:28.818Z,15.65
2023-03-19T18:23:57.309Z,14.80
2023-03-19T18:26:24.765Z,14.98
2023-03-19T18:28:51.402Z,14.98
2023-03-19T18:31:24.353Z,16.00
2023-03-19T18:33:58.089Z,14.65
2023-03-19T18:36:27.655Z,14.68
2023-03-19T18:38:55.492Z,14.68
2023-03-19T18:41:25.393Z,15.70
2023-03-19T18:44:04.890Z,15.30
2023-03-19T18:46:32.948Z,15.57
2023-03-19T18:49:03.151Z,16.23
2023-03-19T18:51:29.854Z,12.65
2023-03-19T18:53:56.941Z,14.15
2023-03-19T18:56:27.066Z,18.67
2023-03-19T18:58:55.874Z,18.17
2023-03-19T19:01:23.260Z,18.20
2023-03-19T19:03:50.869Z,18.35
2023-03-19T19:06:36.591Z,17.80
2023-03-19T19:09:12.751Z,17.52
2023-03-19T19:11:42.156Z,17.00
2023-03-19T19:14:18.947Z,16.73
2023-03-19T19:16:45.898Z,15.63
2023-03-19T19:19:23.864Z,17.33
2023-03-19T19:21:51.676Z,16.50
2023-03-19T19:24:18.550Z,16.58
2023-03-19T19:26:47.842Z,16.73
2023-03-19T19:29:29.540Z,18.73
2023-03-19T19:31:56.994Z,17.80
2023-03-19T19:34:23.686Z,15.57
2023-03-19T19:36:51.243Z,14.02
2023-03-19T19:39:18.341Z,19.20
2023-03-19T19:41:46.457Z,17.65
2023-03-19T19:44:20.822Z,17.48
2023-03-19T19:46:47.480Z,17.52
2023-03-19T19:49:15.048Z,16.92
2023-03-19T19:51:41.721Z,17.73
2023-03-19T19:54:08.366Z,18.20
2023-03-19T19:56:35.056Z,17.80
2023-03-19T19:59:05.452Z,17.65
2023-03-19T20:01:32.157Z,19.65
2023-03-19T20:03:58.766Z,19.73
2023-03-19T20:06:25.731Z,21.45
2023-03-19T20:08:52.926Z,25.33
2023-03-19T20:11:25.593Z,26.27
2023-03-19T20:13:55.541Z,28.35
2023-03-19T20:16:25.622Z,35.42
2023-03-19T20:18:54.811Z,29.10
2023-03-19T20:21:22.767Z,23.45
2023-03-19T20:23:52.874Z,22.15
2023-03-19T20:26:22.570Z,27.00
2023-03-19T20:28:50.768Z,23.95
2023-03-19T20:31:24.778Z,23.77
2023-03-19T20:33:51.552Z,22.98
2023-03-19T20:36:19.508Z,23.25
2023-03-19T20:38:46.143Z,22.52
2023-03-19T20:41:24.182Z,22.73
2023-03-19T20:43:52.350Z,23.88
2023-03-19T20:46:20.804Z,25.17
2023-03-19T20:48:47.987Z,25.35
2023-03-19T20:51:33.201Z,25.23
2023-03-19T20:53:59.909Z,26.25
2023-03-19T20:56:27.013Z,26.83
2023-03-19T20:58:53.655Z,27.25
2023-03-19T21:01:21.662Z,26.40
2023-03-19T21:03:48.483Z,26.75
2023-03-19T21:06:20.055Z,27.00
2023-03-19T21:08:48.926Z,26.90
2023-03-19T21:11:17.985Z,25.17
2023-03-19T21:13:53.969Z,26.00
2023-03-19T21:16:23.627Z,26.52
2023-03-19T21:18:51.938Z,26.38
2023-03-19T21:21:27.069Z,25.35
2023-03-19T21:23:58.200Z,26.88
2023-03-19T21:26:25.613Z,27.33
2023-03-19T21:28:58.530Z,29.60
2023-03-19T21:31:26.322Z,25.67
2023-03-19T21:33:58.379Z,24.30
2023-03-19T21:36:25.748Z,23.33
2023-03-19T21:38:52.534Z,22.63
2023-03-19T21:41:26.087Z,22.17
2023-03-19T21:43:57.303Z,22.48
2023-03-19T21:46:26.323Z,20.52
2023-03-19T21:48:57.751Z,22.00
2023-03-19T21:51:26.082Z,19.83
2023-03-19T21:53:52.736Z,19.85
2023-03-19T21:56:21.590Z,18.98
2023-03-19T21:58:48.429Z,18.48
2023-03-19T22:01:20.907Z,18.15
2023-03-19T22:03:48.382Z,18.00
2023-03-19T22:06:17.057Z,18.17
2023-03-19T22:08:48.294Z,17.88
2023-03-19T22:11:22.805Z,18.52
2023-03-19T22:13:49.725Z,23.60
2023-03-19T22:16:20.244Z,19.17
2023-03-19T22:18:47.811Z,22.40
2023-03-19T22:21:17.751Z,19.95
2023-03-19T22:23:46.497Z,24.85
2023-03-19T22:26:25.514Z,24.42
2023-03-19T22:28:52.421Z,28.92
2023-03-19T22:31:19.187Z,22.58
2023-03-19T22:33:46.066Z,26.88
2023-03-19T22:36:14.895Z,26.30
2023-03-19T22:38:44.559Z,26.40
2023-03-19T22:41:34.196Z,28.02
2023-03-19T22:44:04.247Z,26.35
2023-03-19T22:46:31.220Z,26.90
2023-03-19T22:48:57.991Z,23.70
2023-03-19T22:51:27.347Z,25.85
2023-03-19T22:53:55.212Z,27.85
2023-03-19T22:56:22.480Z,35.72
2023-03-19T22:58:49.945Z,28.88
2023-03-19T23:01:23.122Z,25.00
2023-03-19T23:03:51.720Z,20.55
2023-03-19T23:06:29.669Z,18.67
2023-03-19T23:08:57.372Z,19.08
2023-03-19T23:11:24.551Z,20.70
2023-03-19T23:13:51.549Z,19.40
2023-03-19T23:16:22.065Z,21.58
2023-03-19T23:18:49.884Z,19.50
2023-03-19T23:21:18.462Z,20.15
2023-03-19T23:23:45.933Z,20.17
2023-03-19T23:26:34.547Z,20.58
2023-03-19T23:29:04.874Z,20.42
2023-03-19T23:31:32.650Z,19.60
2023-03-19T23:33:59.317Z,20.40
2023-03-19T23:36:27.975Z,20.52
2023-03-19T23:38:54.794Z,20.70
2023-03-19T23:41:26.647Z,20.52
2023-03-19T23:43:54.790Z,20.27
2023-03-19T23:46:22.146Z,19.92
2023-03-19T23:48:48.920Z,20.85
2023-03-19T23:51:16.758Z,19.73
2023-03-19T23:53:44.224Z,21.05
2023-03-19T23:56:19.273Z,20.30
2023-03-19T23:58:47.645Z,21.73
